TAF KMLS
KMLS 280526Z 2806/2906 16009KT P6SM SCT200 FM281100 19008KT P6SM BKN120 WS020/26035KT FM281600 24014KT P6SM BKN140 WS020/28040KT=
METAR KMLS
WC KMLS
WS KMLS
WV KMLS